Time;durP1;ratioP1;P1;durP2;ratioP2;P2;SDS_P1;SDS_P2;PMS_P1;PMS_P2;Temp;Humidity;BMP_temperature;BMP_pressure;BME280_temperature;BME280_humidity;BME280_pressure;Samples;Min_cycle;Max_cycle;Signal;HPM_P1;HPM_P2
2022/01/29 00:03:14;;;;;;;15.18;3.30;;;;;;;-0.23;71.11;100350.97;8393353;28;20053;-77
2022/01/29 00:07:15;;;;;;;13.30;3.35;;;;;;;-0.18;70.11;100347.69;8395219;28;20098;-77
2022/01/29 00:11:17;;;;;;;10.52;3.60;;;;;;;-0.23;70.36;100339.53;8395109;28;20048;-77
2022/01/29 00:15:18;;;;;;;12.52;3.20;;;;;;;-0.29;71.18;100335.03;8395301;28;20511;-77
2022/01/29 00:19:19;;;;;;;12.07;3.53;;;;;;;-0.30;71.00;100346.69;8395136;28;20049;-76
2022/01/29 00:23:19;;;;;;;12.55;3.00;;;;;;;-0.33;71.47;100339.16;8366670;28;20045;-75
2022/01/29 00:27:22;;;;;;;14.35;3.10;;;;;;;-0.34;71.53;100321.59;8361806;28;20045;-76
2022/01/29 00:31:22;;;;;;;10.63;2.63;;;;;;;-0.31;71.96;100318.50;8361631;28;20463;-77
2022/01/29 00:35:23;;;;;;;16.83;3.20;;;;;;;-0.30;72.12;100322.78;8366489;28;20053;-76
2022/01/29 00:39:24;;;;;;;8.82;2.35;;;;;;;-0.26;72.83;100319.50;8350923;28;20183;-76
2022/01/29 00:43:25;;;;;;;10.18;2.53;;;;;;;-0.21;73.81;100326.88;8376555;28;20048;-76
2022/01/29 00:47:26;;;;;;;17.65;3.00;;;;;;;-0.21;74.85;100327.66;8381862;28;20688;-76
2022/01/29 00:51:27;;;;;;;11.98;3.00;;;;;;;-0.22;75.19;100325.25;8375733;28;20136;-78
2022/01/29 00:55:27;;;;;;;15.52;2.80;;;;;;;-0.23;75.71;100312.97;8385243;28;20087;-76
2022/01/29 00:59:28;;;;;;;12.98;3.80;;;;;;;-0.14;77.11;100301.91;8382227;28;20127;-75
2022/01/29 01:03:29;;;;;;;13.75;2.58;;;;;;;-0.13;77.10;100292.09;8350632;28;20053;-76
2022/01/29 01:07:30;;;;;;;11.57;3.05;;;;;;;-0.17;77.41;100296.22;8367674;28;20135;-77
2022/01/29 01:11:31;;;;;;;21.08;2.90;;;;;;;-0.22;77.73;100282.75;8392294;28;20131;-76
2022/01/29 01:15:32;;;;;;;18.80;2.72;;;;;;;-0.25;78.22;100283.16;8331044;28;20132;-76
2022/01/29 01:19:33;;;;;;;14.52;3.45;;;;;;;-0.28;78.28;100288.91;8367224;28;20063;-76
2022/01/29 01:23:34;;;;;;;21.60;3.33;;;;;;;-0.31;79.71;100284.00;8347781;28;20052;-77
2022/01/29 01:27:35;;;;;;;16.35;3.03;;;;;;;-0.30;80.12;100280.31;8399697;28;20056;-77
2022/01/29 01:31:37;;;;;;;14.20;3.17;;;;;;;-0.32;80.18;100277.91;8335357;28;20134;-76
2022/01/29 01:35:46;;;;;;;19.42;3.35;;;;;;;-0.29;82.18;100281.94;8248236;28;20094;-76
2022/01/29 01:39:47;;;;;;;18.23;2.95;;;;;;;-0.37;81.94;100264.41;8266431;28;20053;-76
2022/01/29 01:43:48;;;;;;;21.48;3.75;;;;;;;-0.45;81.82;100262.81;8296201;28;20128;-77
2022/01/29 01:47:49;;;;;;;19.35;3.45;;;;;;;-0.54;81.69;100253.47;8295523;28;20773;-76
2022/01/29 01:51:50;;;;;;;20.52;4.10;;;;;;;-0.60;81.90;100248.97;8265092;28;20096;-76
2022/01/29 01:55:51;;;;;;;29.38;4.38;;;;;;;-0.58;82.72;100246.91;8289781;28;20054;-76
2022/01/29 01:59:54;;;;;;;19.60;3.97;;;;;;;-0.47;84.01;100248.94;8291312;28;20491;-77
2022/01/29 02:03:55;;;;;;;26.52;4.25;;;;;;;-0.33;85.67;100243.59;8266637;28;20170;-76
2022/01/29 02:07:57;;;;;;;22.13;3.33;;;;;;;-0.24;86.65;100242.31;8365667;28;20500;-76
2022/01/29 02:12:01;;;;;;;22.13;3.35;;;;;;;-0.12;87.44;100235.34;8368356;28;20053;-76
2022/01/29 02:16:04;;;;;;;25.70;4.28;;;;;;;-0.03;88.04;100239.38;8313890;28;20045;-77
2022/01/29 02:20:06;;;;;;;28.35;3.78;;;;;;;-0.01;88.17;100232.00;8385575;28;20052;-77
2022/01/29 02:24:07;;;;;;;25.92;4.65;;;;;;;-0.01;88.88;100226.69;8313539;28;20100;-77
2022/01/29 02:28:14;;;;;;;23.48;4.78;;;;;;;0.09;88.96;100219.09;8366347;28;20584;-77
2022/01/29 02:32:14;;;;;;;28.50;4.93;;;;;;;0.15;89.74;100210.25;8364857;28;20531;-77
2022/01/29 02:36:15;;;;;;;27.00;5.38;;;;;;;0.21;89.55;100198.75;8364612;28;20057;-77
2022/01/29 02:40:17;;;;;;;23.75;4.95;;;;;;;0.15;89.53;100204.94;8372749;28;20040;-76
2022/01/29 02:44:21;;;;;;;36.25;5.25;;;;;;;0.14;90.06;100192.69;8379605;28;20055;-75
2022/01/29 02:48:23;;;;;;;36.47;5.88;;;;;;;0.13;90.39;100199.03;8397326;28;20093;-76
2022/01/29 02:52:24;;;;;;;40.67;6.20;;;;;;;0.11;90.53;100197.59;8361733;28;20491;-77
2022/01/29 02:56:25;;;;;;;36.53;6.35;;;;;;;0.09;90.78;100200.50;8345406;28;20054;-76
2022/01/29 03:00:26;;;;;;;42.20;7.10;;;;;;;0.05;90.94;100183.34;8396269;28;20583;-77
2022/01/29 03:04:26;;;;;;;47.30;5.93;;;;;;;0.05;91.00;100188.66;8396812;28;20135;-75
2022/01/29 03:08:27;;;;;;;40.55;6.38;;;;;;;0.06;90.78;100186.81;8379053;28;20047;-76
2022/01/29 03:12:28;;;;;;;35.72;4.70;;;;;;;-0.03;91.26;100175.63;8396632;28;20143;-77
2022/01/29 03:16:29;;;;;;;25.88;4.20;;;;;;;0.03;91.93;100172.13;8394496;28;20048;-76
2022/01/29 03:20:30;;;;;;;31.90;4.80;;;;;;;0.09;91.18;100163.31;8392710;28;20498;-76
2022/01/29 03:24:31;;;;;;;26.27;4.07;;;;;;;0.15;91.22;100151.81;8396114;28;20048;-76
2022/01/29 03:28:32;;;;;;;34.47;4.72;;;;;;;0.15;91.07;100157.13;8396193;28;20565;-76
2022/01/29 03:32:33;;;;;;;25.75;4.38;;;;;;;0.13;90.97;100148.56;8378167;28;20567;-76
2022/01/29 03:36:33;;;;;;;22.92;3.88;;;;;;;0.25;91.19;100146.84;8378275;28;20419;-75
2022/01/29 03:40:35;;;;;;;23.15;4.30;;;;;;;0.21;90.66;100145.63;8382672;28;20056;-76
2022/01/29 03:44:36;;;;;;;32.75;5.15;;;;;;;0.17;90.73;100139.13;8362648;28;20136;-76
2022/01/29 03:48:37;;;;;;;36.95;5.40;;;;;;;0.18;91.28;100129.31;8362666;28;20044;-76
2022/01/29 03:52:38;;;;;;;36.75;5.75;;;;;;;0.26;91.06;100127.22;8362237;28;20048;-76
2022/01/29 03:56:39;;;;;;;39.70;5.38;;;;;;;0.22;91.27;100131.31;8362488;28;20044;-78
2022/01/29 04:00:39;;;;;;;35.95;5.82;;;;;;;0.22;91.27;100126.00;8376443;28;20076;-77
2022/01/29 04:04:40;;;;;;;30.70;4.72;;;;;;;0.25;91.38;100125.59;8395219;28;20419;-76
2022/01/29 04:08:42;;;;;;;37.80;5.53;;;;;;;0.19;91.50;100110.50;8394838;28;20135;-77
2022/01/29 04:12:47;;;;;;;33.72;5.45;;;;;;;0.20;91.59;100095.38;8395027;28;20109;-77
2022/01/29 04:16:48;;;;;;;30.65;5.63;;;;;;;0.21;91.66;100087.19;8395147;28;20049;-77
2022/01/29 04:20:49;;;;;;;22.80;4.70;;;;;;;0.26;91.37;100092.69;8378507;28;20492;-77
2022/01/29 04:24:50;;;;;;;43.83;4.68;;;;;;;0.29;91.67;100094.91;8351260;28;20055;-75
2022/01/29 04:28:52;;;;;;;28.38;4.13;;;;;;;0.36;91.05;100090.34;8388743;28;20103;-77
2022/01/29 04:36:54;;;;;;;33.63;3.88;;;;;;;0.52;90.94;100064.22;8381767;28;20074;-77
2022/01/29 04:40:56;;;;;;;36.90;4.28;;;;;;;0.65;90.25;100082.69;8369510;28;20056;-76
2022/01/29 04:44:57;;;;;;;35.03;4.40;;;;;;;0.66;90.25;100063.06;8394600;28;20049;-77
2022/01/29 04:48:57;;;;;;;40.95;4.30;;;;;;;0.66;90.47;100073.69;8376968;28;20086;-77
2022/01/29 04:52:58;;;;;;;26.60;4.40;;;;;;;0.84;89.21;100076.38;8332497;28;20052;-77
2022/01/29 04:56:59;;;;;;;30.60;4.45;;;;;;;0.89;88.95;100063.22;8361441;28;20094;-77
2022/01/29 05:01:00;;;;;;;40.40;4.60;;;;;;;0.92;88.63;100062.75;8361427;28;20436;-77
2022/01/29 05:05:01;;;;;;;33.53;4.65;;;;;;;0.86;89.10;100055.66;8343624;28;20568;-77
2022/01/29 05:09:04;;;;;;;25.27;3.88;;;;;;;0.93;88.29;100048.44;8361241;28;20053;-77
2022/01/29 05:13:09;;;;;;;37.08;4.65;;;;;;;0.90;88.48;100043.53;8360766;28;20056;-77
2022/01/29 05:30:07;;;;;;;;;;;;;;;0.88;88.16;100035.00;8382351;28;20419;-77
2022/01/29 05:34:08;;;;;;;24.98;4.45;;;;;;;0.94;87.94;100023.47;8399722;28;19920;-76
2022/01/29 05:38:08;;;;;;;33.15;4.60;;;;;;;1.00;87.25;100017.25;8399662;28;20118;-75
2022/01/29 05:42:09;;;;;;;47.47;7.85;;;;;;;0.99;87.53;99983.72;8354654;28;20061;-76
2022/01/29 05:46:11;;;;;;;47.53;6.32;;;;;;;0.95;87.37;99977.22;8357515;28;20169;-77
2022/01/29 05:50:12;;;;;;;37.53;6.40;;;;;;;1.02;87.27;99961.97;8351623;28;20510;-76
2022/01/29 05:54:12;;;;;;;40.00;6.43;;;;;;;1.09;86.41;99951.25;8395906;28;20053;-76
2022/01/29 05:58:13;;;;;;;41.90;5.95;;;;;;;1.00;87.13;99953.41;8399550;28;20182;-76
2022/01/29 06:02:14;;;;;;;30.50;5.22;;;;;;;0.96;87.37;99941.59;8397135;28;20135;-76
2022/01/29 06:06:15;;;;;;;24.58;5.03;;;;;;;0.95;87.27;99934.66;8370336;28;20083;-77
2022/01/29 06:10:16;;;;;;;28.75;4.07;;;;;;;0.91;87.36;99944.13;8365377;28;20053;-76
2022/01/29 06:14:17;;;;;;;27.75;4.25;;;;;;;0.84;87.93;99943.41;8365390;28;20480;-77
2022/01/29 06:18:20;;;;;;;36.00;4.30;;;;;;;0.76;88.08;99925.09;8365388;28;20129;-77
2022/01/29 06:22:21;;;;;;;35.83;4.80;;;;;;;0.76;88.15;99930.41;8365389;28;20084;-77
2022/01/29 06:26:22;;;;;;;29.17;3.92;;;;;;;0.77;88.24;99918.75;8365168;28;20103;-77
2022/01/29 06:30:23;;;;;;;27.55;5.45;;;;;;;0.75;88.24;99907.50;8364957;28;20049;-77
2022/01/29 06:34:24;;;;;;;35.60;4.57;;;;;;;0.76;88.23;99909.13;8346722;28;20048;-78
2022/01/29 06:38:25;;;;;;;34.28;5.47;;;;;;;0.78;88.06;99901.75;8376259;28;20045;-76
2022/01/29 06:42:25;;;;;;;28.45;4.75;;;;;;;0.91;87.82;99879.47;8350294;28;20532;-76
2022/01/29 06:46:27;;;;;;;39.08;5.55;;;;;;;0.90;87.64;99873.34;8374010;28;20091;-76
2022/01/29 06:50:28;;;;;;;25.13;4.88;;;;;;;0.96;87.22;99877.75;8368645;28;20049;-77
2022/01/29 06:54:29;;;;;;;32.72;4.13;;;;;;;0.96;87.33;99872.44;8395879;28;20094;-76
2022/01/29 06:58:29;;;;;;;39.30;5.03;;;;;;;0.94;87.39;99869.22;8395446;28;20049;-76
2022/01/29 07:02:30;;;;;;;34.15;5.60;;;;;;;0.99;87.18;99877.31;8329997;28;20055;-78
2022/01/29 07:06:31;;;;;;;38.58;4.68;;;;;;;0.99;87.25;99865.88;8381260;28;20522;-76
2022/01/29 07:10:32;;;;;;;46.35;6.60;;;;;;;1.05;86.78;99860.47;8362978;28;20049;-77
2022/01/29 07:14:36;;;;;;;35.22;6.28;;;;;;;1.05;86.65;99856.97;8365685;28;20075;-78
2022/01/29 07:18:37;;;;;;;34.67;5.53;;;;;;;1.07;86.70;99862.88;8376116;28;20056;-76
2022/01/29 07:22:39;;;;;;;34.38;5.07;;;;;;;1.09;86.95;99866.94;8379372;28;20132;-76
2022/01/29 07:26:40;;;;;;;34.42;5.50;;;;;;;1.17;86.05;99857.78;8397158;28;20064;-78
2022/01/29 07:30:41;;;;;;;35.72;5.22;;;;;;;1.20;85.61;99847.53;8379598;28;20082;-76
2022/01/29 07:34:42;;;;;;;28.55;5.25;;;;;;;1.26;84.98;99841.28;8385313;28;20098;-76
2022/01/29 07:38:43;;;;;;;27.60;4.82;;;;;;;1.34;84.35;99841.97;8345961;28;20049;-77
2022/01/29 07:42:44;;;;;;;26.88;4.68;;;;;;;1.37;83.39;99842.34;8378081;28;20057;-77
2022/01/29 07:46:45;;;;;;;22.10;4.28;;;;;;;1.56;82.67;99851.00;8363789;28;20055;-76
2022/01/29 07:50:46;;;;;;;23.13;4.97;;;;;;;1.72;81.24;99844.16;8364977;28;20053;-76
2022/01/29 07:54:46;;;;;;;34.92;7.75;;;;;;;1.54;82.72;99837.09;8376078;28;20492;-77
2022/01/29 07:58:51;;;;;;;28.20;4.25;;;;;;;1.57;83.43;99836.66;8369170;28;20167;-77
2022/01/29 08:02:52;;;;;;;32.58;6.43;;;;;;;1.57;83.65;99826.00;8353164;28;20045;-76
2022/01/29 08:06:53;;;;;;;23.30;5.50;;;;;;;1.44;85.01;99810.25;8369516;28;20040;-78
2022/01/29 08:10:54;;;;;;;22.70;5.88;;;;;;;1.31;85.83;99802.53;8371067;28;20108;-78
2022/01/29 08:14:56;;;;;;;26.67;5.97;;;;;;;1.39;87.14;99802.16;8377728;28;20435;-77
2022/01/29 08:18:57;;;;;;;32.55;6.93;;;;;;;1.28;87.83;99791.28;8373667;28;20178;-77
2022/01/29 08:22:58;;;;;;;23.10;5.82;;;;;;;1.18;88.56;99795.56;8375014;28;20400;-77
2022/01/29 08:26:58;;;;;;;27.60;5.75;;;;;;;1.26;89.32;99782.75;8381778;28;20045;-76
2022/01/29 08:31:00;;;;;;;27.80;6.70;;;;;;;1.22;89.58;99770.91;8395200;28;20048;-76
2022/01/29 08:35:00;;;;;;;26.30;6.13;;;;;;;1.23;90.00;99761.09;8394091;28;20158;-75
2022/01/29 08:39:02;;;;;;;27.00;7.40;;;;;;;1.23;90.40;99755.78;8394302;28;20131;-77
2022/01/29 08:43:03;;;;;;;22.65;6.32;;;;;;;1.12;91.41;99744.09;8361436;28;20190;-78
2022/01/29 08:47:04;;;;;;;32.50;7.45;;;;;;;1.19;91.50;99739.47;8373585;28;20049;-77
2022/01/29 08:51:05;;;;;;;27.67;7.50;;;;;;;1.13;92.16;99735.06;8383035;28;20048;-77
2022/01/29 08:55:07;;;;;;;26.13;7.28;;;;;;;1.08;92.38;99726.97;8369469;28;20053;-77
2022/01/29 08:59:08;;;;;;;25.92;7.07;;;;;;;1.01;93.23;99715.63;8368211;28;20048;-76
2022/01/29 09:03:09;;;;;;;39.30;8.10;;;;;;;1.05;93.57;99722.13;8316615;28;20078;-77
2022/01/29 09:07:10;;;;;;;29.58;7.57;;;;;;;1.00;94.22;99714.03;8373543;28;20045;-77
2022/01/29 09:11:11;;;;;;;32.85;7.78;;;;;;;1.13;93.96;99711.13;8380893;28;20438;-76
2022/01/29 09:15:12;;;;;;;28.13;8.18;;;;;;;1.11;94.12;99699.91;8359875;28;20106;-77
2022/01/29 09:19:13;;;;;;;23.05;7.78;;;;;;;1.05;95.13;99694.72;8393878;28;20045;-77
2022/01/29 09:23:13;;;;;;;32.50;7.10;;;;;;;1.04;95.76;99688.59;8379760;28;20052;-76
2022/01/29 09:27:14;;;;;;;22.85;7.68;;;;;;;1.11;95.34;99673.31;8369359;28;20082;-77
2022/01/29 09:31:15;;;;;;;36.30;8.20;;;;;;;1.13;95.01;99663.25;8401457;28;20134;-77
2022/01/29 09:35:17;;;;;;;26.30;8.25;;;;;;;1.23;94.79;99663.47;8385406;28;20052;-77
2022/01/29 09:39:17;;;;;;;24.30;7.15;;;;;;;1.13;95.49;99654.47;8368176;28;20060;-76
2022/01/29 09:43:19;;;;;;;28.35;7.93;;;;;;;1.11;96.22;99652.03;8377654;28;20048;-75
2022/01/29 09:47:23;;;;;;;28.45;7.95;;;;;;;1.10;96.68;99650.44;8356412;28;20051;-75
2022/01/29 09:51:26;;;;;;;31.45;8.27;;;;;;;1.13;96.51;99638.50;8342184;28;20138;-77
2022/01/29 09:55:27;;;;;;;37.97;8.30;;;;;;;1.18;96.42;99623.44;8372796;28;20055;-76
2022/01/29 09:59:28;;;;;;;31.05;8.38;;;;;;;1.24;96.64;99630.50;8365554;28;20056;-77
2022/01/29 10:03:28;;;;;;;26.65;6.97;;;;;;;1.24;96.24;99614.53;8370354;28;20082;-77
2022/01/29 10:07:31;;;;;;;38.10;7.75;;;;;;;1.24;96.56;99598.56;8375909;28;20072;-77
2022/01/29 10:11:32;;;;;;;34.50;6.90;;;;;;;1.24;96.73;99598.56;8364929;28;20057;-76
2022/01/29 10:15:32;;;;;;;32.28;7.65;;;;;;;1.20;97.15;99591.31;8370146;28;20045;-77
2022/01/29 10:19:34;;;;;;;29.63;7.38;;;;;;;1.19;97.69;99579.84;8329397;28;20190;-78
2022/01/29 10:23:35;;;;;;;36.85;8.25;;;;;;;1.25;97.16;99578.91;8352205;28;20045;-75
2022/01/29 10:27:36;;;;;;;36.28;7.10;;;;;;;1.26;97.62;99575.22;8379842;28;20040;-76
2022/01/29 10:31:44;;;;;;;23.35;7.35;;;;;;;1.23;97.36;99570.34;8367127;28;20515;-76
2022/01/29 10:35:48;;;;;;;34.30;7.35;;;;;;;1.20;97.38;99559.38;8365588;28;20152;-77
2022/01/29 10:39:57;;;;;;;30.13;7.70;;;;;;;1.19;97.66;99553.25;8365103;28;20041;-74
2022/01/29 10:44:08;;;;;;;27.38;8.30;;;;;;;1.23;97.45;99553.56;8380344;28;20053;-77
2022/01/29 10:48:09;;;;;;;23.48;8.55;;;;;;;1.17;97.79;99544.69;8377359;28;20057;-79
2022/01/29 10:52:16;;;;;;;27.90;8.50;;;;;;;1.19;98.30;99531.16;8353633;28;20446;-76
2022/01/29 10:56:37;;;;;;;20.83;8.00;;;;;;;1.14;98.25;99523.88;8378258;28;20049;-76
2022/01/29 11:00:38;;;;;;;26.77;8.85;;;;;;;1.19;98.34;99508.03;8278461;28;20969;-76
2022/01/29 11:04:40;;;;;;;23.10;8.52;;;;;;;1.20;97.99;99512.31;8280668;28;20069;-76
2022/01/29 11:08:43;;;;;;;26.67;8.93;;;;;;;1.09;98.03;99494.53;8271955;28;20069;-78
2022/01/29 11:12:46;;;;;;;25.77;8.93;;;;;;;1.06;98.36;99494.97;8250532;28;20149;-76
2022/01/29 11:16:48;;;;;;;23.15;8.80;;;;;;;0.97;99.11;99480.47;8283885;28;20185;-76
2022/01/29 11:20:50;;;;;;;22.77;9.18;;;;;;;0.96;98.79;99462.88;8256585;28;20582;-76
2022/01/29 11:24:59;;;;;;;29.23;10.20;;;;;;;0.89;99.32;99443.63;8266920;28;20073;-77
2022/01/29 11:29:26;;;;;;;27.20;8.80;;;;;;;0.93;98.63;99447.41;8268014;28;20054;-77
2022/01/29 11:33:26;;;;;;;18.15;8.77;;;;;;;0.89;99.05;99418.88;8364956;28;20404;-76
2022/01/29 11:37:39;;;;;;;19.13;8.30;;;;;;;0.75;99.80;99403.19;8365581;28;20048;-76
2022/01/29 11:41:40;;;;;;;19.20;7.95;;;;;;;0.77;99.99;99384.38;8367214;28;20524;-74
2022/01/29 11:45:59;;;;;;;17.75;8.93;;;;;;;0.74;100.00;99384.84;8353051;28;20098;-77
2022/01/29 11:50:32;;;;;;;17.27;7.47;;;;;;;0.90;100.00;99373.41;8360234;28;20115;-77
2022/01/29 11:55:01;;;;;;;20.08;8.77;;;;;;;0.88;99.89;99364.91;8223780;28;20046;-76
2022/01/29 11:59:20;;;;;;;;;;;;;;;0.92;99.98;99355.38;8213527;28;20054;-77
2022/01/29 12:03:45;;;;;;;17.70;8.73;;;;;;;0.84;99.81;99353.13;8222812;28;19981;-76
2022/01/29 12:08:14;;;;;;;21.55;9.02;;;;;;;0.81;100.00;99348.28;8225030;28;20043;-77
2022/01/29 12:12:26;;;;;;;23.80;10.00;;;;;;;0.86;100.00;99332.41;8206471;28;20556;-78
2022/01/29 12:16:59;;;;;;;17.02;9.07;;;;;;;0.90;100.00;99314.94;8206551;28;20051;-80
2022/01/29 12:21:02;;;;;;;15.18;7.80;;;;;;;0.95;100.00;99301.75;8133208;29;20048;-78
2022/01/29 12:25:06;;;;;;;20.38;9.05;;;;;;;0.86;100.00;99295.19;8142982;29;20508;-78
2022/01/29 12:29:07;;;;;;;17.08;8.48;;;;;;;0.78;100.00;99274.31;8093118;29;20099;-77
2022/01/29 12:33:20;;;;;;;15.55;7.97;;;;;;;0.74;100.00;99273.22;8135381;29;20130;-78
2022/01/29 12:37:21;;;;;;;10.10;5.15;;;;;;;0.84;100.00;99262.75;8135176;29;20052;-77
2022/01/29 12:41:26;;;;;;;18.70;9.75;;;;;;;0.81;100.00;99252.56;8133545;29;20052;-78
2022/01/29 12:45:30;;;;;;;15.13;8.63;;;;;;;0.87;100.00;99240.97;8133803;29;20747;-79
2022/01/29 12:49:42;;;;;;;17.30;8.73;;;;;;;0.92;100.00;99238.38;8080867;29;20070;-77
2022/01/29 12:53:55;;;;;;;17.55;9.30;;;;;;;0.94;100.00;99215.03;8119795;29;20048;-79
2022/01/29 12:57:55;;;;;;;19.25;9.70;;;;;;;1.03;100.00;99213.56;8299454;28;20051;-76
2022/01/29 13:01:57;;;;;;;19.00;9.13;;;;;;;0.99;100.00;99201.00;8327850;28;20055;-75
2022/01/29 13:06:07;;;;;;;18.98;7.38;;;;;;;1.15;100.00;99200.16;8348442;28;20053;-76
2022/01/29 13:10:09;;;;;;;16.77;8.95;;;;;;;1.08;100.00;99189.69;8345773;28;20041;-77
2022/01/29 13:14:14;;;;;;;18.60;8.43;;;;;;;1.13;100.00;99176.47;8323316;28;20052;-76
2022/01/29 13:18:15;;;;;;;16.50;8.57;;;;;;;1.15;100.00;99162.94;8349925;28;20060;-76
2022/01/29 13:22:17;;;;;;;16.95;8.98;;;;;;;1.10;100.00;99155.69;8350156;28;20520;-76
2022/01/29 13:26:20;;;;;;;17.98;8.20;;;;;;;1.19;100.00;99140.91;8355852;28;20053;-78
2022/01/29 13:30:23;;;;;;;16.05;8.05;;;;;;;1.21;100.00;99140.66;8348345;28;20210;-76
2022/01/29 13:34:33;;;;;;;17.58;7.88;;;;;;;1.26;100.00;99133.56;8344834;28;20053;-77
2022/01/29 13:38:39;;;;;;;17.33;8.07;;;;;;;1.24;100.00;99114.38;8326263;28;20094;-77
2022/01/29 13:42:57;;;;;;;18.50;7.68;;;;;;;1.25;100.00;99100.03;8283455;28;20386;-76
2022/01/29 13:47:16;;;;;;;20.33;8.35;;;;;;;1.34;100.00;99096.91;8354689;28;20061;-76
2022/01/29 13:51:54;;;;;;;19.25;8.35;;;;;;;1.43;100.00;99082.13;8307563;28;20060;-77
2022/01/29 13:55:55;;;;;;;15.48;7.47;;;;;;;1.41;100.00;99078.91;8296827;28;20389;-78
2022/01/29 14:00:01;;;;;;;18.95;8.55;;;;;;;1.51;100.00;99065.69;8258673;28;20048;-77
2022/01/29 14:04:12;;;;;;;16.45;7.93;;;;;;;1.48;100.00;99044.94;8294106;28;20128;-77
2022/01/29 14:08:20;;;;;;;15.85;7.35;;;;;;;1.56;100.00;99036.47;8296559;28;20053;-78
2022/01/29 14:12:24;;;;;;;20.67;7.90;;;;;;;1.63;100.00;99027.25;8231430;28;20528;-78
2022/01/29 14:16:32;;;;;;;18.27;8.00;;;;;;;1.74;100.00;99012.16;8329725;28;20408;-77
2022/01/29 14:20:33;;;;;;;17.25;7.65;;;;;;;1.73;100.00;98993.78;8315347;28;20093;-78
2022/01/29 14:24:37;;;;;;;13.48;7.18;;;;;;;1.69;100.00;98993.50;8301202;28;20140;-78
2022/01/29 14:28:37;;;;;;;15.18;7.07;;;;;;;1.77;100.00;98987.69;8332979;28;20471;-78
2022/01/29 14:32:43;;;;;;;17.75;7.22;;;;;;;1.82;100.00;98987.72;8314335;28;20485;-77
2022/01/29 14:36:44;;;;;;;21.33;7.07;;;;;;;1.88;100.00;98992.03;8332584;28;20046;-78
2022/01/29 14:40:45;;;;;;;18.75;7.30;;;;;;;1.88;100.00;98997.34;8338579;28;20052;-79
2022/01/29 14:44:48;;;;;;;13.93;6.57;;;;;;;1.97;100.00;98974.50;8306500;28;20427;-78
2022/01/29 14:48:52;;;;;;;13.77;7.03;;;;;;;2.10;100.00;98967.97;8334129;28;20519;-77
2022/01/29 14:52:54;;;;;;;11.93;5.70;;;;;;;2.09;100.00;98972.47;8314766;28;20049;-76
2022/01/29 14:56:55;;;;;;;13.98;6.55;;;;;;;2.15;100.00;98953.84;8352651;28;20080;-76
2022/01/29 15:00:58;;;;;;;11.70;5.60;;;;;;;2.16;100.00;98960.78;8360051;28;20520;-77
2022/01/29 15:05:03;;;;;;;16.92;7.25;;;;;;;2.07;100.00;98953.28;8361524;28;20045;-76
2022/01/29 15:09:04;;;;;;;13.55;6.72;;;;;;;2.16;100.00;98950.13;8361372;28;20052;-78
2022/01/29 15:13:05;;;;;;;12.32;6.95;;;;;;;2.24;100.00;98941.66;8374677;28;20057;-79
2022/01/29 15:17:06;;;;;;;12.55;6.13;;;;;;;2.23;100.00;98940.84;8361074;28;20412;-76
2022/01/29 15:21:08;;;;;;;14.93;6.53;;;;;;;2.44;100.00;98925.75;8377308;28;20135;-79
2022/01/29 15:25:10;;;;;;;20.40;7.10;;;;;;;2.36;100.00;98935.06;8321770;28;20499;-79
2022/01/29 15:29:11;;;;;;;15.13;7.40;;;;;;;2.58;100.00;98918.91;8375237;28;20053;-77
2022/01/29 15:33:13;;;;;;;16.00;7.20;;;;;;;2.69;100.00;98933.06;8375796;28;20059;-78
2022/01/29 15:37:15;;;;;;;16.10;7.07;;;;;;;2.55;100.00;98932.72;8393690;28;20098;-76
2022/01/29 15:41:16;;;;;;;10.40;5.28;;;;;;;2.64;100.00;98919.72;8392476;28;20055;-76
2022/01/29 15:45:18;;;;;;;15.18;7.95;;;;;;;2.67;100.00;98904.00;8290751;28;20521;-77
2022/01/29 15:49:19;;;;;;;18.42;7.93;;;;;;;2.70;100.00;98892.78;8270470;28;20572;-77
2022/01/29 15:53:28;;;;;;;14.73;7.95;;;;;;;2.73;100.00;98881.63;8279545;28;20070;-77
2022/01/29 15:57:30;;;;;;;24.23;9.20;;;;;;;2.72;100.00;98885.34;8269148;28;20141;-77
2022/01/29 16:01:32;;;;;;;12.35;6.10;;;;;;;2.77;100.00;98866.69;8248839;28;20049;-78
2022/01/29 16:05:34;;;;;;;16.05;8.70;;;;;;;2.81;100.00;98854.44;8289511;28;20549;-78
2022/01/29 16:09:36;;;;;;;21.58;9.18;;;;;;;2.92;100.00;98842.72;8258057;28;20125;-77
2022/01/29 16:13:38;;;;;;;17.50;9.77;;;;;;;2.87;100.00;98834.69;8289941;28;20465;-76
2022/01/29 16:17:39;;;;;;;20.70;9.15;;;;;;;2.90;100.00;98828.84;8301916;28;20114;-76
2022/01/29 16:21:40;;;;;;;20.92;10.02;;;;;;;2.95;100.00;98815.53;8259538;28;20482;-77
2022/01/29 16:25:42;;;;;;;17.00;8.30;;;;;;;3.13;100.00;98821.38;8315601;28;20053;-77
2022/01/29 16:29:44;;;;;;;23.23;10.73;;;;;;;3.06;100.00;98810.19;8292483;28;20439;-76
2022/01/29 16:33:46;;;;;;;23.23;11.30;;;;;;;3.05;100.00;98787.25;8275944;28;20068;-77
2022/01/29 16:37:48;;;;;;;24.45;10.63;;;;;;;3.15;100.00;98766.69;8263004;28;20553;-78
2022/01/29 16:41:50;;;;;;;22.85;10.25;;;;;;;3.26;100.00;98756.81;8293741;28;20050;-78
2022/01/29 16:45:53;;;;;;;19.98;9.90;;;;;;;3.37;100.00;98742.38;8293605;28;20058;-76
2022/01/29 16:49:54;;;;;;;18.08;8.55;;;;;;;3.35;100.00;98733.81;8318748;28;20058;-76
2022/01/29 16:53:55;;;;;;;17.98;8.82;;;;;;;3.46;100.00;98735.41;8324857;28;20085;-76
2022/01/29 16:57:57;;;;;;;23.67;10.55;;;;;;;3.54;100.00;98718.84;8322588;28;20046;-78
2022/01/29 17:01:58;;;;;;;17.38;8.10;;;;;;;3.72;100.00;98718.22;8307825;28;20053;-78
2022/01/29 17:05:59;;;;;;;17.80;8.00;;;;;;;3.86;100.00;98712.31;8298817;28;20042;-79
2022/01/29 17:10:00;;;;;;;13.07;5.85;;;;;;;4.03;100.00;98710.06;8319300;28;20057;-78
2022/01/29 17:14:02;;;;;;;11.88;5.70;;;;;;;4.13;99.68;98691.28;8383808;28;20052;-78
2022/01/29 17:18:03;;;;;;;12.23;6.47;;;;;;;4.21;98.65;98704.09;8387481;28;20074;-78
2022/01/29 17:22:04;;;;;;;13.43;7.05;;;;;;;4.26;98.00;98696.03;8381628;28;20056;-76
2022/01/29 17:26:06;;;;;;;16.45;6.60;;;;;;;4.29;97.75;98695.47;8374761;28;20120;-79
2022/01/29 17:30:08;;;;;;;15.25;6.70;;;;;;;4.32;97.23;98678.91;8372323;28;20064;-78
2022/01/29 17:34:09;;;;;;;15.48;7.13;;;;;;;4.31;97.17;98677.28;8371903;28;20072;-76
2022/01/29 17:38:10;;;;;;;10.60;4.95;;;;;;;4.41;95.91;98676.41;8360062;28;20064;-77
2022/01/29 17:42:18;;;;;;;10.60;5.65;;;;;;;4.47;95.81;98669.97;8269562;28;20498;-76
2022/01/29 17:46:19;;;;;;;13.88;5.43;;;;;;;4.54;95.26;98655.19;8356179;28;20071;-76
2022/01/29 17:50:20;;;;;;;9.07;4.82;;;;;;;4.58;94.81;98645.53;8399274;28;20056;-76
2022/01/29 17:54:23;;;;;;;14.88;5.70;;;;;;;4.60;94.54;98638.00;8398689;28;20056;-76
2022/01/29 17:58:24;;;;;;;7.07;3.65;;;;;;;4.72;94.19;98618.13;8393569;28;20385;-76
2022/01/29 18:02:25;;;;;;;6.00;3.33;;;;;;;4.73;93.63;98609.03;8348383;28;20111;-76
2022/01/29 18:06:27;;;;;;;7.63;3.25;;;;;;;4.82;93.14;98612.66;8366006;28;20049;-77
2022/01/29 18:10:29;;;;;;;8.40;4.20;;;;;;;4.84;93.22;98589.91;8365646;28;20049;-77
2022/01/29 18:14:30;;;;;;;11.43;5.72;;;;;;;4.80;92.93;98582.75;8366502;28;20045;-76
2022/01/29 18:18:32;;;;;;;17.63;6.53;;;;;;;4.63;92.76;98575.94;8366685;28;20048;-78
2022/01/29 18:22:36;;;;;;;13.82;6.30;;;;;;;4.31;94.07;98570.38;8314293;28;20110;-78
2022/01/29 18:26:38;;;;;;;14.30;6.90;;;;;;;4.36;93.00;98551.59;8365137;28;20045;-77
2022/01/29 18:30:40;;;;;;;12.73;6.47;;;;;;;4.23;93.73;98536.22;8365099;28;20057;-76
2022/01/29 18:34:42;;;;;;;14.73;6.97;;;;;;;4.07;95.35;98527.53;8369100;28;20044;-77
2022/01/29 18:38:43;;;;;;;21.20;7.55;;;;;;;4.15;95.17;98534.16;8397248;28;20129;-75
2022/01/29 18:42:47;;;;;;;18.55;8.30;;;;;;;4.23;94.59;98520.16;8380614;28;20052;-77
2022/01/29 18:46:48;;;;;;;24.70;4.85;;;;;;;4.16;94.85;98503.69;8372229;28;20041;-75
2022/01/29 18:50:53;;;;;;;16.65;6.90;;;;;;;4.29;95.31;98488.84;8365183;28;20049;-76
2022/01/29 18:55:14;;;;;;;15.77;6.45;;;;;;;4.49;95.67;98483.31;8364405;28;20053;-76
2022/01/29 18:59:15;;;;;;;10.25;3.40;;;;;;;4.85;94.30;98489.06;8230829;28;20054;-77
2022/01/29 19:03:17;;;;;;;17.02;8.90;;;;;;;5.01;93.40;98467.19;8213739;28;20132;-76
2022/01/29 19:07:18;;;;;;;7.78;4.18;;;;;;;5.18;92.09;98445.28;8262049;28;20046;-75
2022/01/29 19:11:19;;;;;;;9.82;5.18;;;;;;;5.33;91.12;98453.09;8245529;28;20502;-75
2022/01/29 19:15:31;;;;;;;12.45;4.68;;;;;;;5.39;91.04;98467.97;8250503;28;20042;-77